createdAt,value
2018-06-09T00:02:53.090Z,18.70
2018-06-09T00:05:57.468Z,18.70
2018-06-09T00:09:01.883Z,18.60
2018-06-09T00:12:06.258Z,18.60
2018-06-09T00:15:10.621Z,18.50
2018-06-09T00:18:15.009Z,18.50
2018-06-09T00:21:19.357Z,18.50
2018-06-09T00:24:23.725Z,18.50
2018-06-09T00:27:28.101Z,18.40
2018-06-09T00:33:36.600Z,18.40
2018-06-09T00:36:41.795Z,18.30
2018-06-09T00:39:46.176Z,18.20
2018-06-09T00:42:50.530Z,18.20
2018-06-09T00:45:54.904Z,18.20
2018-06-09T00:48:59.266Z,18.20
2018-06-09T00:52:03.637Z,18.20
2018-06-09T00:55:07.682Z,18.20
2018-06-09T00:58:12.066Z,18.10
2018-06-09T01:01:16.412Z,18.10
2018-06-09T01:04:20.774Z,18.00
2018-06-09T01:07:25.145Z,18.00
2018-06-09T01:10:29.512Z,17.90
2018-06-09T01:13:33.877Z,17.90
2018-06-09T01:16:38.249Z,17.80
2018-06-09T01:19:42.657Z,17.80
2018-06-09T01:22:47.010Z,17.80
2018-06-09T01:25:51.397Z,17.80
2018-06-09T01:28:55.772Z,17.70
2018-06-09T01:32:00.162Z,17.60
2018-06-09T01:35:04.538Z,17.60
2018-06-09T01:38:08.941Z,17.60
2018-06-09T01:41:13.288Z,17.50
2018-06-09T01:44:17.646Z,17.50
2018-06-09T01:47:22.044Z,17.50
2018-06-09T01:50:26.413Z,17.50
2018-06-09T01:53:30.792Z,17.40
2018-06-09T01:56:35.156Z,17.40
2018-06-09T01:59:39.549Z,17.50
2018-06-09T02:02:43.925Z,17.40
2018-06-09T02:05:48.281Z,17.40
2018-06-09T02:08:52.644Z,17.40
2018-06-09T02:11:57.009Z,17.40
2018-06-09T02:15:01.382Z,17.40
2018-06-09T02:18:05.769Z,17.30
2018-06-09T02:21:10.145Z,17.20
2018-06-09T02:24:14.488Z,17.30
2018-06-09T02:27:18.877Z,17.30
2018-06-09T02:30:23.233Z,17.20
2018-06-09T02:33:27.612Z,17.20
2018-06-09T02:36:31.964Z,17.10
2018-06-09T02:39:36.353Z,17.10
2018-06-09T02:42:40.711Z,17.10
2018-06-09T02:45:45.065Z,17.00
2018-06-09T02:48:49.446Z,17.00
2018-06-09T02:51:53.827Z,16.90
2018-06-09T02:54:58.206Z,16.90
2018-06-09T02:58:02.590Z,16.90
2018-06-09T03:01:06.978Z,16.90
2018-06-09T03:04:11.353Z,16.90
2018-06-09T03:07:15.746Z,16.90
2018-06-09T03:10:20.100Z,17.00
2018-06-09T03:13:24.486Z,17.00
2018-06-09T03:16:28.861Z,17.00
2018-06-09T03:19:33.232Z,17.10
2018-06-09T03:22:37.605Z,17.10
2018-06-09T03:25:41.977Z,17.10
2018-06-09T03:28:46.329Z,17.10
2018-06-09T03:31:50.709Z,17.10
2018-06-09T03:34:55.061Z,17.20
2018-06-09T03:37:59.471Z,17.20
2018-06-09T03:41:03.836Z,17.40
2018-06-09T03:44:08.225Z,17.40
2018-06-09T03:47:12.582Z,17.50
2018-06-09T03:50:16.952Z,17.50
2018-06-09T03:53:21.321Z,17.50
2018-06-09T03:56:25.685Z,17.60
2018-06-09T03:59:30.085Z,17.70
2018-06-09T04:02:34.449Z,17.70
2018-06-09T04:05:38.814Z,17.80
2018-06-09T04:08:43.201Z,17.80
2018-06-09T04:11:47.561Z,17.90
2018-06-09T04:14:51.920Z,18.00
2018-06-09T04:17:56.283Z,18.10
2018-06-09T04:21:00.664Z,18.20
2018-06-09T04:24:05.068Z,18.20
2018-06-09T04:27:09.412Z,18.30
2018-06-09T04:30:13.817Z,18.30
2018-06-09T04:33:18.189Z,18.30
2018-06-09T04:36:22.569Z,18.40
2018-06-09T04:39:26.937Z,18.40
2018-06-09T04:42:31.325Z,18.50
2018-06-09T04:45:35.677Z,18.50
2018-06-09T04:48:40.069Z,18.60
2018-06-09T04:51:44.441Z,18.70
2018-06-09T04:54:48.822Z,18.80
2018-06-09T04:57:53.164Z,18.80
2018-06-09T05:00:57.562Z,19.00
2018-06-09T05:04:01.946Z,19.00
2018-06-09T05:07:06.308Z,19.10
2018-06-09T05:10:10.700Z,19.20
2018-06-09T05:13:15.074Z,19.30
2018-06-09T05:16:19.494Z,19.30
2018-06-09T05:19:23.865Z,19.40
2018-06-09T05:22:28.229Z,19.40
2018-06-09T05:25:32.605Z,19.40
2018-06-09T05:28:36.988Z,19.50
2018-06-09T05:31:41.381Z,19.50
2018-06-09T05:34:45.778Z,19.60
2018-06-09T05:37:50.160Z,19.70
2018-06-09T05:40:55.754Z,19.70
2018-06-09T05:44:00.137Z,19.80
2018-06-09T05:47:04.547Z,19.90
2018-06-09T05:50:08.914Z,20.00
2018-06-09T05:53:13.312Z,20.20
2018-06-09T05:56:17.671Z,20.30
2018-06-09T05:59:22.045Z,20.40
2018-06-09T06:02:26.404Z,20.60
2018-06-09T06:05:30.780Z,20.70
2018-06-09T06:08:35.255Z,20.90
2018-06-09T06:11:39.662Z,20.90
2018-06-09T06:14:44.049Z,21.00
2018-06-09T06:20:52.533Z,21.10
2018-06-09T06:23:56.929Z,21.20
2018-06-09T06:27:01.308Z,21.50
2018-06-09T06:30:05.720Z,21.60
2018-06-09T06:33:10.136Z,21.80
2018-06-09T06:36:14.514Z,21.80
2018-06-09T06:39:18.893Z,21.80
2018-06-09T06:42:23.248Z,21.80
2018-06-09T06:45:27.597Z,21.70
2018-06-09T06:48:31.985Z,21.80
2018-06-09T06:51:36.365Z,21.70
2018-06-09T06:54:40.738Z,21.60
2018-06-09T06:57:45.102Z,21.50
2018-06-09T07:00:49.470Z,21.40
2018-06-09T07:03:53.869Z,21.40
2018-06-09T07:06:58.233Z,21.30
2018-06-09T07:10:02.600Z,21.20
2018-06-09T07:13:06.968Z,21.20
2018-06-09T07:16:11.353Z,21.10
2018-06-09T07:19:15.736Z,20.90
2018-06-09T07:22:20.130Z,20.80
2018-06-09T07:25:24.502Z,20.70
2018-06-09T07:28:28.881Z,20.70
2018-06-09T07:31:33.276Z,20.50
2018-06-09T07:34:37.712Z,20.50
2018-06-09T07:37:42.086Z,20.40
2018-06-09T07:40:46.453Z,20.20
2018-06-09T07:43:50.814Z,20.10
2018-06-09T07:46:55.172Z,20.00
2018-06-09T07:49:59.522Z,19.90
2018-06-09T07:53:03.947Z,19.80
2018-06-09T07:56:08.324Z,19.70
2018-06-09T07:59:12.725Z,19.70
2018-06-09T08:02:17.081Z,19.60
2018-06-09T08:05:21.453Z,19.60
2018-06-09T08:08:25.817Z,19.50
2018-06-09T08:11:30.198Z,19.40
2018-06-09T08:14:34.568Z,19.40
2018-06-09T08:17:38.946Z,19.30
2018-06-09T08:20:43.312Z,19.30
2018-06-09T08:23:47.687Z,19.30
2018-06-09T08:26:52.083Z,19.30
2018-06-09T08:29:56.473Z,19.30
2018-06-09T08:33:00.886Z,19.30
2018-06-09T08:36:05.416Z,19.30
2018-06-09T08:39:11.237Z,19.30
2018-06-09T08:42:18.299Z,19.30
2018-06-09T08:45:22.754Z,19.40
2018-06-09T08:48:27.155Z,19.40
2018-06-09T08:51:31.594Z,19.40
2018-06-09T08:54:36.021Z,19.40
2018-06-09T08:57:40.417Z,19.50
2018-06-09T09:00:44.841Z,19.60
2018-06-09T09:03:49.252Z,19.70
2018-06-09T09:06:53.636Z,19.70
2018-06-09T09:09:58.045Z,19.70
2018-06-09T09:13:02.490Z,19.80
2018-06-09T09:16:06.905Z,19.80
2018-06-09T09:19:11.320Z,19.80
2018-06-09T09:22:15.701Z,19.80
2018-06-09T09:25:20.100Z,19.80
2018-06-09T09:28:24.500Z,19.90
2018-06-09T09:31:28.904Z,20.00
2018-06-09T09:34:33.328Z,20.00
2018-06-09T09:37:37.778Z,20.00
2018-06-09T09:40:42.185Z,20.00
2018-06-09T09:43:46.617Z,20.10
2018-06-09T09:46:51.045Z,20.10
2018-06-09T09:52:59.633Z,20.10
2018-06-09T09:56:04.089Z,20.20
2018-06-09T09:59:08.498Z,20.20
2018-06-09T10:02:13.044Z,20.20
2018-06-09T10:05:18.109Z,20.20
2018-06-09T10:08:22.541Z,20.30
2018-06-09T10:11:26.964Z,20.30
2018-06-09T10:14:31.426Z,20.30
2018-06-09T10:17:35.873Z,20.40
2018-06-09T10:20:40.313Z,20.50
2018-06-09T10:23:44.716Z,20.60
2018-06-09T10:26:49.196Z,20.80
2018-06-09T10:29:53.640Z,20.80
2018-06-09T10:32:58.161Z,20.90
2018-06-09T10:36:02.840Z,21.00
2018-06-09T10:39:09.394Z,21.10
2018-06-09T10:42:14.000Z,21.20
2018-06-09T10:45:21.011Z,21.30
2018-06-09T10:48:25.626Z,21.40
2018-06-09T10:51:30.113Z,21.40
2018-06-09T10:54:37.098Z,21.50
2018-06-09T10:57:41.761Z,21.60
2018-06-09T11:00:47.639Z,21.80
2018-06-09T11:03:52.345Z,22.00
2018-06-09T11:06:56.749Z,22.10
2018-06-09T11:10:01.194Z,22.20
2018-06-09T11:13:05.733Z,22.30
2018-06-09T11:16:10.146Z,22.30
2018-06-09T11:19:14.527Z,22.40
2018-06-09T11:22:18.934Z,22.50
2018-06-09T11:25:23.346Z,22.50
2018-06-09T11:28:27.758Z,22.60
2018-06-09T11:31:32.194Z,22.70
2018-06-09T11:34:36.613Z,22.90
2018-06-09T11:37:41.333Z,23.10
2018-06-09T11:40:45.761Z,23.30
2018-06-09T11:43:50.170Z,23.40
2018-06-09T11:46:54.561Z,23.50
2018-06-09T11:49:58.962Z,23.60
2018-06-09T11:53:03.374Z,23.70
2018-06-09T11:56:07.750Z,24.00
2018-06-09T11:59:12.148Z,24.20
2018-06-09T12:02:16.537Z,24.20
2018-06-09T12:05:20.937Z,24.20
2018-06-09T12:08:25.364Z,24.20
2018-06-09T12:11:29.764Z,24.10
2018-06-09T12:14:34.146Z,24.00
2018-06-09T12:17:38.570Z,24.00
2018-06-09T12:20:42.954Z,24.00
2018-06-09T12:23:47.349Z,24.10
2018-06-09T12:26:51.753Z,24.00
2018-06-09T12:29:56.156Z,23.90
2018-06-09T12:33:00.571Z,23.90
2018-06-09T12:36:05.013Z,23.90
2018-06-09T12:39:09.417Z,24.00
2018-06-09T12:42:13.813Z,24.00
2018-06-09T12:45:18.201Z,23.90
2018-06-09T12:48:22.590Z,23.80
2018-06-09T12:51:26.996Z,23.80
2018-06-09T12:54:31.502Z,23.80
2018-06-09T12:57:35.867Z,23.60
2018-06-09T13:00:40.267Z,23.60
2018-06-09T13:03:44.652Z,23.60
2018-06-09T13:06:49.089Z,23.60
2018-06-09T13:09:53.482Z,23.60
2018-06-09T13:12:57.886Z,23.70
2018-06-09T13:16:02.306Z,23.70
2018-06-09T13:19:07.873Z,23.70
2018-06-09T13:22:12.302Z,23.70
2018-06-09T13:25:16.685Z,23.60
2018-06-09T13:28:21.121Z,23.50
2018-06-09T13:31:26.006Z,23.50
2018-06-09T13:34:30.409Z,23.40
2018-06-09T13:37:34.805Z,23.50
2018-06-09T13:40:39.214Z,23.50
2018-06-09T13:43:43.577Z,23.50
2018-06-09T13:46:47.985Z,23.50
2018-06-09T13:49:52.393Z,23.50
2018-06-09T13:52:56.810Z,23.50
2018-06-09T13:56:01.189Z,23.50
2018-06-09T13:59:05.616Z,23.50
2018-06-09T14:02:10.025Z,23.50
2018-06-09T14:05:14.393Z,23.50
2018-06-09T14:08:18.773Z,23.50
2018-06-09T14:11:23.113Z,23.50
2018-06-09T14:14:27.457Z,23.60
2018-06-09T14:17:31.817Z,23.50
2018-06-09T14:20:36.192Z,23.40
2018-06-09T14:23:40.550Z,23.40
2018-06-09T14:26:44.928Z,23.30
2018-06-09T14:29:49.313Z,23.30
2018-06-09T14:32:53.689Z,23.30
2018-06-09T14:35:58.049Z,23.20
2018-06-09T14:39:02.446Z,23.20
2018-06-09T14:42:06.886Z,23.20
2018-06-09T14:45:11.283Z,23.20
2018-06-09T14:48:15.669Z,23.10
2018-06-09T14:51:20.050Z,23.10
2018-06-09T14:54:24.450Z,23.10
2018-06-09T14:57:28.851Z,23.10
2018-06-09T15:00:33.236Z,23.10
2018-06-09T15:03:37.605Z,23.00
2018-06-09T15:06:42.037Z,23.00
2018-06-09T15:09:46.432Z,23.00
2018-06-09T15:12:50.843Z,23.00
2018-06-09T15:15:55.217Z,23.00
2018-06-09T15:18:59.612Z,23.00
2018-06-09T15:22:04.026Z,23.00
2018-06-09T15:25:08.458Z,23.00
2018-06-09T15:28:12.908Z,22.90
2018-06-09T15:31:17.281Z,22.90
2018-06-09T15:34:21.664Z,23.00
2018-06-09T15:37:26.078Z,23.00
2018-06-09T15:40:30.469Z,23.00
2018-06-09T15:43:34.854Z,23.00
2018-06-09T15:46:39.242Z,23.00
2018-06-09T15:49:43.666Z,23.00
2018-06-09T15:52:48.081Z,22.90
2018-06-09T15:55:52.514Z,22.90
2018-06-09T15:58:56.889Z,22.90
2018-06-09T16:02:01.273Z,23.00
2018-06-09T16:05:05.657Z,23.20
2018-06-09T16:08:10.043Z,23.20
2018-06-09T16:11:14.405Z,23.30
2018-06-09T16:14:18.813Z,23.30
2018-06-09T16:17:23.185Z,23.50
2018-06-09T16:20:27.557Z,23.60
2018-06-09T16:23:31.922Z,23.70
2018-06-09T16:26:36.281Z,23.80
2018-06-09T16:29:40.641Z,23.90
2018-06-09T16:32:45.032Z,23.80
2018-06-09T16:35:49.413Z,23.80
2018-06-09T16:38:53.803Z,23.70
2018-06-09T16:41:58.177Z,23.70
2018-06-09T16:45:02.541Z,23.80
2018-06-09T16:48:07.025Z,23.70
2018-06-09T16:51:11.400Z,23.70
2018-06-09T16:54:15.809Z,23.70
2018-06-09T16:57:20.205Z,23.70
2018-06-09T17:00:24.583Z,23.70
2018-06-09T17:03:28.961Z,23.70
2018-06-09T17:06:33.356Z,23.70
2018-06-09T17:09:37.725Z,23.70
2018-06-09T17:12:42.104Z,23.70
2018-06-09T17:15:46.480Z,23.60
2018-06-09T17:18:50.864Z,23.60
2018-06-09T17:21:55.253Z,23.60
2018-06-09T17:24:59.628Z,23.60
2018-06-09T17:28:03.998Z,23.60
2018-06-09T17:31:08.385Z,23.60
2018-06-09T17:34:12.753Z,23.60
2018-06-09T17:37:17.152Z,23.60
2018-06-09T17:40:21.578Z,23.60
2018-06-09T17:43:25.971Z,23.60
2018-06-09T17:46:30.349Z,23.60
2018-06-09T17:49:34.743Z,23.50
2018-06-09T17:52:39.097Z,23.50
2018-06-09T17:55:43.469Z,23.40
2018-06-09T17:58:47.837Z,23.50
2018-06-09T18:01:52.233Z,23.40
2018-06-09T18:04:56.625Z,23.40
2018-06-09T18:08:01.029Z,23.30
2018-06-09T18:11:05.396Z,23.30
2018-06-09T18:14:09.781Z,23.20
2018-06-09T18:17:14.165Z,23.20
2018-06-09T18:20:18.576Z,23.20
2018-06-09T18:23:22.973Z,23.20
2018-06-09T18:26:27.426Z,23.10
2018-06-09T18:29:31.749Z,23.10
2018-06-09T18:32:36.128Z,23.00
2018-06-09T18:35:40.509Z,22.90
2018-06-09T18:38:44.899Z,22.90
2018-06-09T18:41:49.260Z,22.70
2018-06-09T18:44:53.646Z,22.70
2018-06-09T18:47:58.008Z,22.50
2018-06-09T18:51:02.401Z,22.50
2018-06-09T18:54:06.881Z,22.30
2018-06-09T18:57:11.265Z,22.30
2018-06-09T19:00:15.669Z,22.20
2018-06-09T19:03:20.066Z,22.10
2018-06-09T19:06:24.480Z,22.00
2018-06-09T19:09:28.873Z,22.00
2018-06-09T19:12:33.425Z,22.00
2018-06-09T19:15:37.830Z,21.90
2018-06-09T19:18:42.220Z,21.90
2018-06-09T19:21:46.586Z,21.80
2018-06-09T19:24:51.013Z,21.80
2018-06-09T19:27:55.383Z,21.80
2018-06-09T19:30:59.766Z,21.70
2018-06-09T19:34:04.149Z,21.70
2018-06-09T19:37:08.537Z,21.60
2018-06-09T19:40:12.931Z,21.60
2018-06-09T19:43:17.296Z,21.50
2018-06-09T19:46:21.694Z,21.50
2018-06-09T19:49:26.072Z,21.50
2018-06-09T19:52:30.465Z,21.40
2018-06-09T19:55:34.874Z,21.40
2018-06-09T19:58:39.250Z,21.40
2018-06-09T20:01:43.626Z,21.30
2018-06-09T20:04:48.018Z,21.30
2018-06-09T20:07:52.421Z,21.30
2018-06-09T20:10:56.792Z,21.20
2018-06-09T20:14:01.193Z,21.20
2018-06-09T20:17:05.641Z,21.20
2018-06-09T20:20:10.018Z,21.10
2018-06-09T20:23:14.384Z,21.10
2018-06-09T20:29:22.894Z,21.00
2018-06-09T20:32:27.336Z,21.00
2018-06-09T20:35:31.741Z,20.90
2018-06-09T20:38:36.145Z,20.90
2018-06-09T20:41:40.504Z,20.80
2018-06-09T20:44:44.892Z,20.80
2018-06-09T20:47:49.281Z,20.70
2018-06-09T20:50:53.741Z,20.70
2018-06-09T20:53:58.214Z,20.60
2018-06-09T20:57:02.581Z,20.60
2018-06-09T21:00:06.973Z,20.60
2018-06-09T21:03:11.369Z,20.60
2018-06-09T21:06:15.734Z,20.60
2018-06-09T21:09:20.115Z,20.60
2018-06-09T21:12:24.521Z,20.50
2018-06-09T21:15:28.909Z,20.50
2018-06-09T21:18:33.264Z,20.50
2018-06-09T21:21:37.627Z,20.40
2018-06-09T21:24:42.002Z,20.40
2018-06-09T21:27:51.441Z,20.40
2018-06-09T21:31:00.880Z,20.40
2018-06-09T21:34:27.605Z,20.40
2018-06-09T21:37:40.245Z,20.40
2018-06-09T21:40:49.239Z,20.30
2018-06-09T21:43:56.724Z,20.30
2018-06-09T21:47:01.129Z,20.20
2018-06-09T21:50:05.767Z,20.20
2018-06-09T21:53:10.166Z,20.20
2018-06-09T21:59:18.635Z,20.10
2018-06-09T22:02:23.398Z,20.10
2018-06-09T22:05:27.854Z,20.00
2018-06-09T22:08:32.242Z,20.00
2018-06-09T22:11:36.613Z,20.00
2018-06-09T22:14:41.025Z,19.90
2018-06-09T22:17:45.405Z,20.00
2018-06-09T22:20:49.768Z,19.90
2018-06-09T22:23:54.124Z,19.80
2018-06-09T22:26:58.486Z,19.80
2018-06-09T22:30:02.902Z,19.80
2018-06-09T22:33:07.266Z,19.80
2018-06-09T22:36:11.648Z,19.70
2018-06-09T22:39:16.009Z,19.70
2018-06-09T22:42:20.364Z,19.70
2018-06-09T22:45:24.738Z,19.70
2018-06-09T22:48:29.125Z,19.70
2018-06-09T22:51:33.481Z,19.70
2018-06-09T22:54:37.886Z,19.70
2018-06-09T22:57:42.269Z,19.60
2018-06-09T23:00:50.194Z,19.60
2018-06-09T23:03:54.562Z,19.60
2018-06-09T23:06:58.920Z,19.60
2018-06-09T23:10:03.272Z,19.50
2018-06-09T23:13:07.640Z,19.50
2018-06-09T23:16:11.992Z,19.50
2018-06-09T23:19:16.388Z,19.50
2018-06-09T23:22:20.819Z,19.40
2018-06-09T23:25:25.157Z,19.50
2018-06-09T23:28:29.513Z,19.40
2018-06-09T23:31:33.877Z,19.40
2018-06-09T23:34:38.231Z,19.40
2018-06-09T23:37:42.629Z,19.40
2018-06-09T23:40:46.980Z,19.30
2018-06-09T23:43:51.353Z,19.30
2018-06-09T23:46:55.692Z,19.30
2018-06-09T23:50:00.099Z,19.20
2018-06-09T23:53:04.507Z,19.10
2018-06-09T23:56:08.945Z,19.10
2018-06-09T23:59:13.297Z,19.10
